createdAt,value
2022-10-18T00:00:02.359Z,6.03
2022-10-18T00:02:31.399Z,5.80
2022-10-18T00:04:58.198Z,6.28
2022-10-18T00:07:24.933Z,6.18
2022-10-18T00:09:51.705Z,5.82
2022-10-18T00:12:18.499Z,5.10
2022-10-18T00:14:45.223Z,5.75
2022-10-18T00:17:12.213Z,5.38
2022-10-18T00:19:38.877Z,5.90
2022-10-18T00:22:05.570Z,6.18
2022-10-18T00:24:32.385Z,5.78
2022-10-18T00:26:59.125Z,6.40
2022-10-18T00:29:25.988Z,5.75
2022-10-18T00:31:52.706Z,5.38
2022-10-18T00:34:19.477Z,5.78
2022-10-18T00:36:46.477Z,5.07
2022-10-18T00:39:20.477Z,5.30
2022-10-18T00:41:48.519Z,5.45
2022-10-18T00:44:15.153Z,5.22
2022-10-18T00:46:45.208Z,5.68
2022-10-18T00:49:16.605Z,5.82
2022-10-18T00:51:46.817Z,5.50
2022-10-18T00:54:15.120Z,5.90
2022-10-18T00:56:44.830Z,5.68
2022-10-18T00:59:14.753Z,5.30
2022-10-18T01:01:41.641Z,5.82
2022-10-18T01:04:08.469Z,5.57
2022-10-18T01:06:53.166Z,6.05
2022-10-18T01:09:38.618Z,6.20
2022-10-18T01:12:11.308Z,5.35
2022-10-18T01:14:54.510Z,4.80
2022-10-18T01:17:27.254Z,5.75
2022-10-18T01:19:59.763Z,5.72
2022-10-18T01:22:34.794Z,5.85
2022-10-18T01:25:06.399Z,6.45
2022-10-18T01:27:43.093Z,6.40
2022-10-18T01:30:40.739Z,5.22
2022-10-18T01:33:22.984Z,5.38
2022-10-18T01:36:05.934Z,5.85
2022-10-18T01:38:34.753Z,5.70
2022-10-18T01:41:04.393Z,5.13
2022-10-18T01:43:32.978Z,6.13
2022-10-18T01:46:00.647Z,5.35
2022-10-18T01:48:29.590Z,5.85
2022-10-18T01:50:57.154Z,5.05
2022-10-18T01:53:29.917Z,5.35
2022-10-18T01:59:05.254Z,5.93
2022-10-18T02:01:41.116Z,5.80
2022-10-18T02:04:27.189Z,5.38
2022-10-18T02:07:03.957Z,4.93
2022-10-18T02:09:39.683Z,5.15
2022-10-18T02:12:10.944Z,6.05
2022-10-18T02:14:39.815Z,6.45
2022-10-18T02:17:09.859Z,5.97
2022-10-18T02:19:41.054Z,6.10
2022-10-18T02:22:10.810Z,5.32
2022-10-18T02:24:50.017Z,5.97
2022-10-18T02:27:17.117Z,6.18
2022-10-18T02:29:44.541Z,5.57
2022-10-18T02:32:11.192Z,5.78
2022-10-18T02:34:45.450Z,5.40
2022-10-18T02:37:14.534Z,5.50
2022-10-18T02:39:50.181Z,5.68
2022-10-18T02:42:17.341Z,5.93
2022-10-18T02:44:44.143Z,5.90
2022-10-18T02:47:12.497Z,6.00
2022-10-18T02:49:39.484Z,6.38
2022-10-18T02:52:06.345Z,5.82
2022-10-18T02:54:33.127Z,5.72
2022-10-18T02:56:59.903Z,6.28
2022-10-18T02:59:26.638Z,5.88
2022-10-18T03:01:53.469Z,5.20
2022-10-18T03:04:20.307Z,5.70
2022-10-18T03:06:47.106Z,5.78
2022-10-18T03:09:13.794Z,5.75
2022-10-18T03:11:40.578Z,5.22
2022-10-18T03:14:07.275Z,5.38
2022-10-18T03:16:34.290Z,5.22
2022-10-18T03:19:01.136Z,5.78
2022-10-18T03:21:27.870Z,5.57
2022-10-18T03:23:54.677Z,5.38
2022-10-18T03:26:21.696Z,5.57
2022-10-18T03:28:48.485Z,5.78
2022-10-18T03:31:15.383Z,5.93
2022-10-18T03:33:42.203Z,5.40
2022-10-18T03:36:09.075Z,5.60
2022-10-18T03:38:35.881Z,6.18
2022-10-18T03:41:02.671Z,6.03
2022-10-18T03:43:29.589Z,5.90
2022-10-18T03:45:56.452Z,5.80
2022-10-18T03:48:23.684Z,5.68
2022-10-18T03:50:50.572Z,5.40
2022-10-18T03:53:17.318Z,6.38
2022-10-18T03:55:44.112Z,5.72
2022-10-18T03:58:10.912Z,5.88
2022-10-18T04:00:37.655Z,5.50
2022-10-18T04:03:04.425Z,6.07
2022-10-18T04:05:31.520Z,5.75
2022-10-18T04:07:58.690Z,5.20
2022-10-18T04:10:26.039Z,5.25
2022-10-18T04:12:52.860Z,5.95
2022-10-18T04:15:19.698Z,5.47
2022-10-18T04:17:46.645Z,6.75
2022-10-18T04:20:13.819Z,5.60
2022-10-18T04:22:40.723Z,5.68
2022-10-18T04:25:07.794Z,6.07
2022-10-18T04:27:34.907Z,6.05
2022-10-18T04:30:01.885Z,6.15
2022-10-18T04:32:29.468Z,5.55
2022-10-18T04:34:56.500Z,5.97
2022-10-18T04:37:23.362Z,6.05
2022-10-18T04:39:53.463Z,6.55
2022-10-18T04:42:22.170Z,6.80
2022-10-18T04:44:49.447Z,5.70
2022-10-18T04:47:17.221Z,5.80
2022-10-18T04:49:44.377Z,5.93
2022-10-18T04:52:11.194Z,6.15
2022-10-18T04:54:38.084Z,6.95
2022-10-18T04:57:04.910Z,6.05
2022-10-18T04:59:31.676Z,6.55
2022-10-18T05:01:58.540Z,5.95
2022-10-18T05:04:25.506Z,5.95
2022-10-18T05:06:52.336Z,5.60
2022-10-18T05:09:19.248Z,6.63
2022-10-18T05:11:46.033Z,6.00
2022-10-18T05:14:12.859Z,5.82
2022-10-18T05:16:39.621Z,6.28
2022-10-18T05:19:06.483Z,5.90
2022-10-18T05:21:33.446Z,5.22
2022-10-18T05:24:00.223Z,5.68
2022-10-18T05:26:27.479Z,5.55
2022-10-18T05:28:54.384Z,5.25
2022-10-18T05:31:21.634Z,5.57
2022-10-18T05:33:48.371Z,5.50
2022-10-18T05:36:15.330Z,4.20
2022-10-18T05:38:43.069Z,4.97
2022-10-18T05:41:10.673Z,4.60
2022-10-18T05:43:37.812Z,4.18
2022-10-18T05:46:07.201Z,4.68
2022-10-18T05:48:36.540Z,4.70
2022-10-18T05:51:03.439Z,4.80
2022-10-18T05:53:38.377Z,4.63
2022-10-18T05:56:06.992Z,3.83
2022-10-18T05:58:34.004Z,4.57
2022-10-18T06:01:05.628Z,4.10
2022-10-18T06:06:35.440Z,4.30
2022-10-18T06:09:03.507Z,4.40
2022-10-18T06:11:30.957Z,4.50
2022-10-18T06:13:58.322Z,4.10
2022-10-18T06:16:32.042Z,4.32
2022-10-18T06:19:00.134Z,3.95
2022-10-18T06:21:27.661Z,4.13
2022-10-18T06:23:56.919Z,3.63
2022-10-18T06:26:24.418Z,4.03
2022-10-18T06:28:51.404Z,3.55
2022-10-18T06:31:18.657Z,3.80
2022-10-18T06:33:46.118Z,3.47
2022-10-18T06:36:17.868Z,3.83
2022-10-18T06:38:44.781Z,3.95
2022-10-18T06:41:11.882Z,4.15
2022-10-18T06:43:38.732Z,4.57
2022-10-18T06:46:07.787Z,4.28
2022-10-18T06:48:35.956Z,3.78
2022-10-18T06:51:05.449Z,4.10
2022-10-18T06:53:36.267Z,3.95
2022-10-18T06:58:33.463Z,3.85
2022-10-18T07:01:05.078Z,3.90
2022-10-18T07:03:31.781Z,3.08
2022-10-18T07:06:01.702Z,3.38
2022-10-18T07:08:29.359Z,3.35
2022-10-18T07:10:56.192Z,3.65
2022-10-18T07:13:38.606Z,3.47
2022-10-18T07:16:06.793Z,3.40
2022-10-18T07:18:35.962Z,3.17
2022-10-18T07:21:05.294Z,2.78
2022-10-18T07:23:36.721Z,3.03
2022-10-18T07:26:10.371Z,3.15
2022-10-18T07:28:37.274Z,3.33
2022-10-18T07:31:08.381Z,3.67
2022-10-18T07:33:36.910Z,3.30
2022-10-18T07:36:06.090Z,3.42
2022-10-18T07:38:33.554Z,2.90
2022-10-18T07:41:01.669Z,3.15
2022-10-18T07:43:28.707Z,3.50
2022-10-18T07:45:57.729Z,3.17
2022-10-18T07:48:24.965Z,3.15
2022-10-18T07:50:52.691Z,2.78
2022-10-18T07:53:19.556Z,3.33
2022-10-18T07:55:46.411Z,3.28
2022-10-18T07:58:13.176Z,3.13
2022-10-18T08:00:40.578Z,2.70
2022-10-18T08:03:07.546Z,2.83
2022-10-18T08:05:34.437Z,2.90
2022-10-18T08:08:04.295Z,2.72
2022-10-18T08:10:35.567Z,2.38
2022-10-18T08:13:02.282Z,2.63
2022-10-18T08:15:28.966Z,2.65
2022-10-18T08:17:55.716Z,2.50
2022-10-18T08:20:31.099Z,2.83
2022-10-18T08:23:00.471Z,2.65
2022-10-18T08:25:28.438Z,2.88
2022-10-18T08:27:55.171Z,2.80
2022-10-18T08:30:23.477Z,2.70
2022-10-18T08:32:50.229Z,2.90
2022-10-18T08:35:17.103Z,2.40
2022-10-18T08:37:45.345Z,2.45
2022-10-18T08:40:15.891Z,2.67
2022-10-18T08:43:22.079Z,2.75
2022-10-18T08:45:51.465Z,2.58
2022-10-18T08:48:27.811Z,2.50
2022-10-18T08:50:57.470Z,2.70
2022-10-18T08:53:26.808Z,2.40
2022-10-18T08:56:19.030Z,2.30
2022-10-18T08:58:46.111Z,2.50
2022-10-18T09:01:32.448Z,2.45
2022-10-18T09:04:26.826Z,3.05
2022-10-18T09:07:15.900Z,2.65
2022-10-18T09:10:18.614Z,2.65
2022-10-18T09:13:10.242Z,2.25
2022-10-18T09:15:59.209Z,2.85
2022-10-18T09:18:58.342Z,3.05
2022-10-18T09:21:41.466Z,2.70
2022-10-18T09:24:13.257Z,2.63
2022-10-18T09:26:45.490Z,3.10
2022-10-18T09:31:53.823Z,2.15
2022-10-18T09:34:39.231Z,2.65
2022-10-18T09:37:13.541Z,2.90
2022-10-18T09:39:41.230Z,2.22
2022-10-18T09:42:26.728Z,2.35
2022-10-18T09:45:01.337Z,2.30
2022-10-18T09:47:43.042Z,2.80
2022-10-18T09:50:36.012Z,2.38
2022-10-18T09:53:36.994Z,2.42
2022-10-18T09:56:11.990Z,2.38
2022-10-18T09:58:46.514Z,2.40
2022-10-18T10:01:18.038Z,2.05
2022-10-18T10:03:44.866Z,2.70
2022-10-18T10:06:11.502Z,2.17
2022-10-18T10:08:42.754Z,2.20
2022-10-18T10:11:35.258Z,2.23
2022-10-18T10:16:57.941Z,1.75
2022-10-18T10:19:32.560Z,1.95
2022-10-18T10:22:04.819Z,2.15
2022-10-18T10:24:43.994Z,2.08
2022-10-18T10:27:18.808Z,2.50
2022-10-18T10:29:45.662Z,2.10
2022-10-18T10:32:14.593Z,2.22
2022-10-18T10:34:44.659Z,2.47
2022-10-18T10:37:25.976Z,1.85
2022-10-18T10:40:18.449Z,2.05
2022-10-18T10:43:43.511Z,2.00
2022-10-18T10:46:13.182Z,2.42
2022-10-18T10:49:34.583Z,2.20
2022-10-18T10:52:08.194Z,2.10
2022-10-18T10:54:50.301Z,1.70
2022-10-18T10:57:26.257Z,2.33
2022-10-18T10:59:56.326Z,1.73
2022-10-18T11:02:29.803Z,1.83
2022-10-18T11:05:15.223Z,2.03
2022-10-18T11:07:45.532Z,2.30
2022-10-18T11:10:19.614Z,2.25
2022-10-18T11:13:23.119Z,1.92
2022-10-18T11:15:57.233Z,1.95
2022-10-18T11:18:27.051Z,2.10
2022-10-18T11:21:02.296Z,1.33
2022-10-18T11:23:33.059Z,1.90
2022-10-18T11:26:11.632Z,2.10
2022-10-18T11:29:20.184Z,1.83
2022-10-18T11:31:55.716Z,2.08
2022-10-18T11:34:22.449Z,1.80
2022-10-18T11:37:15.604Z,2.10
2022-10-18T11:39:57.763Z,1.90
2022-10-18T11:42:50.785Z,1.88
2022-10-18T11:45:46.918Z,2.20
2022-10-18T11:48:42.503Z,1.50
2022-10-18T11:51:38.732Z,2.22
2022-10-18T11:57:22.407Z,1.98
2022-10-18T11:59:59.496Z,2.05
2022-10-18T12:02:44.634Z,1.73
2022-10-18T12:05:22.984Z,2.00
2022-10-18T12:08:02.538Z,1.70
2022-10-18T12:10:44.482Z,1.52
2022-10-18T12:13:44.365Z,1.85
2022-10-18T12:16:12.570Z,2.08
2022-10-18T12:18:49.514Z,1.60
2022-10-18T12:21:25.293Z,2.17
2022-10-18T12:24:04.558Z,1.60
2022-10-18T12:26:33.137Z,1.77
2022-10-18T12:29:08.726Z,1.75
2022-10-18T12:31:57.269Z,1.40
2022-10-18T12:34:35.081Z,1.80
2022-10-18T12:37:07.693Z,1.50
2022-10-18T12:40:09.037Z,1.67
2022-10-18T12:42:42.465Z,1.75
2022-10-18T12:45:33.419Z,2.00
2022-10-18T12:48:04.934Z,1.70
2022-10-18T12:50:35.345Z,1.67
2022-10-18T12:53:29.467Z,1.85
2022-10-18T12:56:28.408Z,1.52
2022-10-18T12:59:14.244Z,1.85
2022-10-18T13:01:53.326Z,1.95
2022-10-18T13:04:29.644Z,2.28
2022-10-18T13:07:05.509Z,2.28
2022-10-18T13:09:35.543Z,1.65
2022-10-18T13:12:12.383Z,2.22
2022-10-18T13:15:07.141Z,1.70
2022-10-18T13:17:59.331Z,1.73
2022-10-18T13:20:53.836Z,1.92
2022-10-18T13:23:47.075Z,1.60
2022-10-18T13:26:24.270Z,2.00
2022-10-18T13:29:00.331Z,1.77
2022-10-18T13:31:42.494Z,2.10
2022-10-18T13:34:22.492Z,2.15
2022-10-18T13:37:03.129Z,2.00
2022-10-18T13:39:31.469Z,2.42
2022-10-18T13:41:58.229Z,2.60
2022-10-18T13:44:34.478Z,2.30
2022-10-18T13:47:01.242Z,2.70
2022-10-18T13:49:39.935Z,2.80
2022-10-18T13:52:15.821Z,2.80
2022-10-18T13:55:07.183Z,3.63
2022-10-18T13:57:49.312Z,4.10
2022-10-18T14:00:18.914Z,3.72
2022-10-18T14:03:01.087Z,2.70
2022-10-18T14:05:50.052Z,3.38
2022-10-18T14:11:30.561Z,2.35
2022-10-18T14:14:23.156Z,1.70
2022-10-18T14:16:56.558Z,1.75
2022-10-18T14:19:52.491Z,1.65
2022-10-18T14:22:26.567Z,1.63
2022-10-18T14:24:56.100Z,2.10
2022-10-18T14:27:25.505Z,1.50
2022-10-18T14:30:09.776Z,2.05
2022-10-18T14:32:37.047Z,1.80
2022-10-18T14:37:53.901Z,1.67
2022-10-18T14:40:40.680Z,2.10
2022-10-18T14:43:18.733Z,2.20
2022-10-18T14:45:45.731Z,2.60
2022-10-18T14:48:23.641Z,2.30
2022-10-18T14:50:59.451Z,2.03
2022-10-18T14:53:32.576Z,2.13
2022-10-18T14:56:01.172Z,1.83
2022-10-18T14:58:28.502Z,2.78
2022-10-18T15:00:55.596Z,2.10
2022-10-18T15:03:23.257Z,2.20
2022-10-18T15:05:59.635Z,2.03
2022-10-18T15:08:43.715Z,1.90
2022-10-18T15:11:14.468Z,1.95
2022-10-18T15:13:54.630Z,2.00
2022-10-18T15:16:25.686Z,1.85
2022-10-18T15:19:18.569Z,2.35
2022-10-18T15:22:30.333Z,2.80
2022-10-18T15:25:06.330Z,3.20
2022-10-18T15:27:37.454Z,3.97
2022-10-18T15:30:30.123Z,6.63
2022-10-18T15:33:01.630Z,7.38
2022-10-18T15:35:34.533Z,9.30
2022-10-18T15:38:21.529Z,9.27
2022-10-18T15:40:48.383Z,8.35
2022-10-18T15:43:24.331Z,6.38
2022-10-18T15:45:53.794Z,6.35
2022-10-18T15:48:41.004Z,5.25
2022-10-18T15:51:19.603Z,5.10
2022-10-18T15:53:49.398Z,5.60
2022-10-18T15:56:31.200Z,4.97
2022-10-18T15:59:00.854Z,5.57
2022-10-18T16:01:34.591Z,5.43
2022-10-18T16:04:07.314Z,5.43
2022-10-18T16:06:37.428Z,5.32
2022-10-18T16:09:04.291Z,6.18
2022-10-18T16:11:31.136Z,5.53
2022-10-18T16:14:00.341Z,5.60
2022-10-18T16:16:29.395Z,5.22
2022-10-18T16:18:56.710Z,7.82
2022-10-18T16:21:30.023Z,7.40
2022-10-18T16:23:57.489Z,6.57
2022-10-18T16:26:26.208Z,6.00
2022-10-18T16:28:53.980Z,4.78
2022-10-18T16:31:27.140Z,4.40
2022-10-18T16:33:55.265Z,5.13
2022-10-18T16:36:24.576Z,4.45
2022-10-18T16:38:51.595Z,3.95
2022-10-18T16:41:18.909Z,3.28
2022-10-18T16:43:47.466Z,4.38
2022-10-18T16:46:19.623Z,3.17
2022-10-18T16:48:48.060Z,3.95
2022-10-18T16:51:15.207Z,3.67
2022-10-18T16:53:42.439Z,3.20
2022-10-18T16:56:18.025Z,3.17
2022-10-18T16:58:44.967Z,4.05
2022-10-18T17:01:16.719Z,4.97
2022-10-18T17:03:44.489Z,4.63
2022-10-18T17:06:21.597Z,3.72
2022-10-18T17:08:49.023Z,3.83
2022-10-18T17:11:17.340Z,4.45
2022-10-18T17:13:44.524Z,3.45
2022-10-18T17:16:21.494Z,3.60
2022-10-18T17:18:48.338Z,3.53
2022-10-18T17:21:15.219Z,4.43
2022-10-18T17:23:42.097Z,3.95
2022-10-18T17:26:27.939Z,3.67
2022-10-18T17:28:59.152Z,3.50
2022-10-18T17:31:26.238Z,3.58
2022-10-18T17:33:55.408Z,3.88
2022-10-18T17:36:22.914Z,3.60
2022-10-18T17:38:54.269Z,3.45
2022-10-18T17:41:21.669Z,3.95
2022-10-18T17:43:51.278Z,3.35
2022-10-18T17:46:19.581Z,3.30
2022-10-18T17:48:46.555Z,3.15
2022-10-18T17:51:16.121Z,2.80
2022-10-18T17:53:43.003Z,4.00
2022-10-18T17:56:10.823Z,2.97
2022-10-18T17:58:37.595Z,3.65
2022-10-18T18:01:15.200Z,3.70
2022-10-18T18:03:42.782Z,3.70
2022-10-18T18:06:21.908Z,3.65
2022-10-18T18:08:49.680Z,3.70
2022-10-18T18:11:17.865Z,3.65
2022-10-18T18:13:44.660Z,3.65
2022-10-18T18:16:20.389Z,3.90
2022-10-18T18:18:50.125Z,3.08
2022-10-18T18:21:17.303Z,3.70
2022-10-18T18:23:44.703Z,3.20
2022-10-18T18:26:14.496Z,3.80
2022-10-18T18:28:41.747Z,3.53
2022-10-18T18:31:11.946Z,3.67
2022-10-18T18:33:38.872Z,3.42
2022-10-18T18:36:07.092Z,3.75
2022-10-18T18:38:36.191Z,3.15
2022-10-18T18:41:08.688Z,3.47
2022-10-18T18:43:36.583Z,3.28
2022-10-18T18:46:04.211Z,3.20
2022-10-18T18:48:33.717Z,3.63
2022-10-18T18:51:01.215Z,3.50
2022-10-18T18:53:29.678Z,3.83
2022-10-18T18:56:05.931Z,4.40
2022-10-18T18:58:34.671Z,3.60
2022-10-18T19:01:07.930Z,2.90
2022-10-18T19:03:35.146Z,3.22
2022-10-18T19:06:10.087Z,4.03
2022-10-18T19:08:39.864Z,2.95
2022-10-18T19:11:09.348Z,3.25
2022-10-18T19:13:36.535Z,3.58
2022-10-18T19:16:21.796Z,3.75
2022-10-18T19:18:54.493Z,3.28
2022-10-18T19:21:22.617Z,3.55
2022-10-18T19:23:50.352Z,3.72
2022-10-18T19:26:25.949Z,3.25
2022-10-18T19:28:52.881Z,4.10
2022-10-18T19:31:19.935Z,2.90
2022-10-18T19:33:48.459Z,4.18
2022-10-18T19:36:25.475Z,3.95
2022-10-18T19:38:52.298Z,3.40
2022-10-18T19:41:19.092Z,3.28
2022-10-18T19:43:45.900Z,3.42
2022-10-18T19:46:12.695Z,4.03
2022-10-18T19:48:39.523Z,3.63
2022-10-18T19:51:09.433Z,3.78
2022-10-18T19:53:36.805Z,4.20
2022-10-18T19:56:05.381Z,4.18
2022-10-18T19:58:32.637Z,3.85
2022-10-18T20:01:00.310Z,3.85
2022-10-18T20:03:30.406Z,3.42
2022-10-18T20:06:02.499Z,3.40
2022-10-18T20:08:31.656Z,4.13
2022-10-18T20:11:03.392Z,3.72
2022-10-18T20:13:30.350Z,3.75
2022-10-18T20:15:57.177Z,3.83
2022-10-18T20:18:23.915Z,3.53
2022-10-18T20:20:50.873Z,4.45
2022-10-18T20:23:18.757Z,3.95
2022-10-18T20:26:15.469Z,4.05
2022-10-18T20:28:46.130Z,3.58
2022-10-18T20:31:18.306Z,3.53
2022-10-18T20:33:46.740Z,3.90
2022-10-18T20:36:18.433Z,4.18
2022-10-18T20:38:47.034Z,3.60
2022-10-18T20:41:19.536Z,3.67
2022-10-18T20:43:53.845Z,4.50
2022-10-18T20:46:21.111Z,4.55
2022-10-18T20:48:49.324Z,3.55
2022-10-18T20:51:18.796Z,4.15
2022-10-18T20:53:45.841Z,3.83
2022-10-18T20:56:15.783Z,3.67
2022-10-18T20:58:44.520Z,4.85
2022-10-18T21:01:16.980Z,4.85
2022-10-18T21:03:45.837Z,4.47
2022-10-18T21:06:16.725Z,3.75
2022-10-18T21:08:44.393Z,3.70
2022-10-18T21:11:12.560Z,4.30
2022-10-18T21:13:40.942Z,4.18
2022-10-18T21:16:08.126Z,4.25
2022-10-18T21:18:37.124Z,3.83
2022-10-18T21:21:14.293Z,4.10
2022-10-18T21:23:41.893Z,4.82
2022-10-18T21:26:20.584Z,4.72
2022-10-18T21:28:50.903Z,4.13
2022-10-18T21:31:20.703Z,4.43
2022-10-18T21:33:47.987Z,4.53
2022-10-18T21:36:14.867Z,4.50
2022-10-18T21:38:44.968Z,4.65
2022-10-18T21:41:14.193Z,4.13
2022-10-18T21:43:43.677Z,4.15
2022-10-18T21:46:11.576Z,4.85
2022-10-18T21:48:41.937Z,4.32
2022-10-18T21:51:09.403Z,4.68
2022-10-18T21:53:37.385Z,4.80
2022-10-18T21:56:09.474Z,4.50
2022-10-18T21:58:36.847Z,4.53
2022-10-18T22:01:15.376Z,4.70
2022-10-18T22:03:42.662Z,4.75
2022-10-18T22:06:14.453Z,4.40
2022-10-18T22:08:50.312Z,5.28
2022-10-18T22:11:20.118Z,4.53
2022-10-18T22:13:47.222Z,5.35
2022-10-18T22:16:16.010Z,4.40
2022-10-18T22:18:43.555Z,4.22
2022-10-18T22:21:13.438Z,4.13
2022-10-18T22:23:43.316Z,3.92
2022-10-18T22:26:12.239Z,4.53
2022-10-18T22:28:41.079Z,4.35
2022-10-18T22:31:15.187Z,4.75
2022-10-18T22:33:41.956Z,5.30
2022-10-18T22:36:08.844Z,4.78
2022-10-18T22:38:36.273Z,4.60
2022-10-18T22:41:11.412Z,5.20
2022-10-18T22:43:38.623Z,4.32
2022-10-18T22:46:12.681Z,4.55
2022-10-18T22:48:40.105Z,3.90
2022-10-18T22:51:07.657Z,5.55
2022-10-18T22:53:35.851Z,4.18
2022-10-18T22:56:04.005Z,4.57
2022-10-18T22:58:31.240Z,4.10
2022-10-18T23:01:09.070Z,4.75
2022-10-18T23:03:36.223Z,4.32
2022-10-18T23:06:04.176Z,4.30
2022-10-18T23:08:31.358Z,4.65
2022-10-18T23:10:59.712Z,4.60
2022-10-18T23:13:27.513Z,4.85
2022-10-18T23:16:04.359Z,4.75
2022-10-18T23:18:32.691Z,5.13
2022-10-18T23:21:08.244Z,5.10
2022-10-18T23:23:37.175Z,4.40
2022-10-18T23:26:12.973Z,4.90
2022-10-18T23:28:42.322Z,4.00
2022-10-18T23:31:20.164Z,4.70
2022-10-18T23:33:48.638Z,5.55
2022-10-18T23:36:16.172Z,4.40
2022-10-18T23:38:43.700Z,4.32
2022-10-18T23:41:12.604Z,4.90
2022-10-18T23:43:39.319Z,4.88
2022-10-18T23:46:06.365Z,4.35
2022-10-18T23:48:34.251Z,4.13
2022-10-18T23:51:01.892Z,4.60
2022-10-18T23:53:29.480Z,4.25
2022-10-18T23:55:57.695Z,4.85
2022-10-18T23:58:25.850Z,4.10
